sensor_id;sensor_type;location;lat;lon;timestamp;temperature;humidity
9271;DHT22;4673;53.458;9.940;2023-08-07T00:00:43;15.20;85.70
9271;DHT22;4673;53.458;9.940;2023-08-07T00:03:08;15.20;85.90
9271;DHT22;4673;53.458;9.940;2023-08-07T00:05:34;15.20;86.00
9271;DHT22;4673;53.458;9.940;2023-08-07T00:08:00;15.20;86.10
9271;DHT22;4673;53.458;9.940;2023-08-07T00:10:26;15.20;86.00
9271;DHT22;4673;53.458;9.940;2023-08-07T00:12:52;15.10;85.90
9271;DHT22;4673;53.458;9.940;2023-08-07T00:15:17;15.10;85.70
9271;DHT22;4673;53.458;9.940;2023-08-07T00:17:43;15.10;85.60
9271;DHT22;4673;53.458;9.940;2023-08-07T00:20:09;15.00;85.60
9271;DHT22;4673;53.458;9.940;2023-08-07T00:22:35;14.90;85.50
9271;DHT22;4673;53.458;9.940;2023-08-07T00:25:00;14.90;85.50
9271;DHT22;4673;53.458;9.940;2023-08-07T00:27:26;14.90;85.70
9271;DHT22;4673;53.458;9.940;2023-08-07T00:29:52;14.80;85.60
9271;DHT22;4673;53.458;9.940;2023-08-07T00:32:17;14.70;85.30
9271;DHT22;4673;53.458;9.940;2023-08-07T00:34:43;14.70;85.10
9271;DHT22;4673;53.458;9.940;2023-08-07T00:37:09;14.70;84.80
9271;DHT22;4673;53.458;9.940;2023-08-07T00:39:34;14.60;84.60
9271;DHT22;4673;53.458;9.940;2023-08-07T00:42:00;14.60;84.50
9271;DHT22;4673;53.458;9.940;2023-08-07T00:44:26;14.50;84.70
9271;DHT22;4673;53.458;9.940;2023-08-07T00:46:51;14.50;84.80
9271;DHT22;4673;53.458;9.940;2023-08-07T00:49:19;14.40;84.60
9271;DHT22;4673;53.458;9.940;2023-08-07T00:51:45;14.50;84.80
9271;DHT22;4673;53.458;9.940;2023-08-07T00:54:12;14.50;84.60
9271;DHT22;4673;53.458;9.940;2023-08-07T00:56:39;14.50;84.80
9271;DHT22;4673;53.458;9.940;2023-08-07T00:59:05;14.40;84.40
9271;DHT22;4673;53.458;9.940;2023-08-07T01:01:32;14.40;84.60
9271;DHT22;4673;53.458;9.940;2023-08-07T01:03:57;14.40;84.40
9271;DHT22;4673;53.458;9.940;2023-08-07T01:06:23;14.50;84.50
9271;DHT22;4673;53.458;9.940;2023-08-07T01:08:49;14.50;84.20
9271;DHT22;4673;53.458;9.940;2023-08-07T01:11:31;14.60;83.80
9271;DHT22;4673;53.458;9.940;2023-08-07T01:14:58;14.60;83.90
9271;DHT22;4673;53.458;9.940;2023-08-07T01:17:16;14.60;83.80
9271;DHT22;4673;53.458;9.940;2023-08-07T01:19:42;14.60;83.60
9271;DHT22;4673;53.458;9.940;2023-08-07T01:22:13;14.60;83.60
9271;DHT22;4673;53.458;9.940;2023-08-07T01:24:41;14.70;83.70
9271;DHT22;4673;53.458;9.940;2023-08-07T01:27:30;14.70;83.60
9271;DHT22;4673;53.458;9.940;2023-08-07T01:30:26;14.70;83.70
9271;DHT22;4673;53.458;9.940;2023-08-07T01:33:22;14.70;83.70
9271;DHT22;4673;53.458;9.940;2023-08-07T01:35:53;14.70;83.90
9271;DHT22;4673;53.458;9.940;2023-08-07T01:38:19;14.60;84.00
9271;DHT22;4673;53.458;9.940;2023-08-07T01:40:47;14.60;84.10
9271;DHT22;4673;53.458;9.940;2023-08-07T01:43:14;14.60;84.40
9271;DHT22;4673;53.458;9.940;2023-08-07T01:45:39;14.60;84.80
9271;DHT22;4673;53.458;9.940;2023-08-07T01:48:05;14.50;85.20
9271;DHT22;4673;53.458;9.940;2023-08-07T01:50:31;14.50;85.50
9271;DHT22;4673;53.458;9.940;2023-08-07T01:52:57;14.50;85.90
9271;DHT22;4673;53.458;9.940;2023-08-07T01:55:22;14.50;85.90
9271;DHT22;4673;53.458;9.940;2023-08-07T01:57:48;14.40;86.20
9271;DHT22;4673;53.458;9.940;2023-08-07T02:00:14;14.40;86.40
9271;DHT22;4673;53.458;9.940;2023-08-07T02:02:40;14.40;86.60
9271;DHT22;4673;53.458;9.940;2023-08-07T02:05:05;14.40;86.70
9271;DHT22;4673;53.458;9.940;2023-08-07T02:07:32;14.30;86.60
9271;DHT22;4673;53.458;9.940;2023-08-07T02:09:57;14.30;86.90
9271;DHT22;4673;53.458;9.940;2023-08-07T02:12:23;14.30;86.90
9271;DHT22;4673;53.458;9.940;2023-08-07T02:14:50;14.30;86.50
9271;DHT22;4673;53.458;9.940;2023-08-07T02:17:16;14.30;86.30
9271;DHT22;4673;53.458;9.940;2023-08-07T02:19:41;14.20;86.00
9271;DHT22;4673;53.458;9.940;2023-08-07T02:22:07;14.20;85.80
9271;DHT22;4673;53.458;9.940;2023-08-07T02:24:33;14.30;85.20
9271;DHT22;4673;53.458;9.940;2023-08-07T02:26:58;14.30;84.40
9271;DHT22;4673;53.458;9.940;2023-08-07T02:29:24;14.30;83.70
9271;DHT22;4673;53.458;9.940;2023-08-07T02:31:50;14.30;83.20
9271;DHT22;4673;53.458;9.940;2023-08-07T02:34:15;14.30;82.70
9271;DHT22;4673;53.458;9.940;2023-08-07T02:36:41;14.30;82.30
9271;DHT22;4673;53.458;9.940;2023-08-07T02:39:07;14.30;82.40
9271;DHT22;4673;53.458;9.940;2023-08-07T02:41:32;14.30;82.10
9271;DHT22;4673;53.458;9.940;2023-08-07T02:43:58;14.30;82.30
9271;DHT22;4673;53.458;9.940;2023-08-07T02:46:24;14.30;82.20
9271;DHT22;4673;53.458;9.940;2023-08-07T02:48:49;14.20;82.10
9271;DHT22;4673;53.458;9.940;2023-08-07T02:51:15;14.20;82.20
9271;DHT22;4673;53.458;9.940;2023-08-07T02:53:41;14.30;82.30
9271;DHT22;4673;53.458;9.940;2023-08-07T02:56:07;14.30;82.40
9271;DHT22;4673;53.458;9.940;2023-08-07T02:58:32;14.20;82.40
9271;DHT22;4673;53.458;9.940;2023-08-07T03:01:03;14.30;82.50
9271;DHT22;4673;53.458;9.940;2023-08-07T03:03:29;14.30;82.30
9271;DHT22;4673;53.458;9.940;2023-08-07T03:05:55;14.30;82.30
9271;DHT22;4673;53.458;9.940;2023-08-07T03:08:21;14.30;82.40
9271;DHT22;4673;53.458;9.940;2023-08-07T03:10:53;14.30;82.10
9271;DHT22;4673;53.458;9.940;2023-08-07T03:13:21;14.30;82.00
9271;DHT22;4673;53.458;9.940;2023-08-07T03:15:47;14.30;81.70
9271;DHT22;4673;53.458;9.940;2023-08-07T03:18:14;14.30;81.60
9271;DHT22;4673;53.458;9.940;2023-08-07T03:20:40;14.30;81.50
9271;DHT22;4673;53.458;9.940;2023-08-07T03:23:05;14.30;81.60
9271;DHT22;4673;53.458;9.940;2023-08-07T03:25:31;14.30;81.70
9271;DHT22;4673;53.458;9.940;2023-08-07T03:27:57;14.30;81.70
9271;DHT22;4673;53.458;9.940;2023-08-07T03:30:22;14.30;81.80
9271;DHT22;4673;53.458;9.940;2023-08-07T03:32:48;14.40;81.90
9271;DHT22;4673;53.458;9.940;2023-08-07T03:35:15;14.40;82.00
9271;DHT22;4673;53.458;9.940;2023-08-07T03:37:41;14.40;82.10
9271;DHT22;4673;53.458;9.940;2023-08-07T03:40:07;14.40;82.20
9271;DHT22;4673;53.458;9.940;2023-08-07T03:42:33;14.40;82.50
9271;DHT22;4673;53.458;9.940;2023-08-07T03:44:58;14.40;82.50
9271;DHT22;4673;53.458;9.940;2023-08-07T03:47:24;14.40;82.60
9271;DHT22;4673;53.458;9.940;2023-08-07T03:49:49;14.30;82.60
9271;DHT22;4673;53.458;9.940;2023-08-07T03:52:15;14.40;82.70
9271;DHT22;4673;53.458;9.940;2023-08-07T03:54:41;14.40;82.70
9271;DHT22;4673;53.458;9.940;2023-08-07T03:57:06;14.40;82.60
9271;DHT22;4673;53.458;9.940;2023-08-07T03:59:33;14.40;82.50
9271;DHT22;4673;53.458;9.940;2023-08-07T04:01:59;14.40;82.50
9271;DHT22;4673;53.458;9.940;2023-08-07T04:04:25;14.50;82.70
9271;DHT22;4673;53.458;9.940;2023-08-07T04:06:50;14.50;82.70
9271;DHT22;4673;53.458;9.940;2023-08-07T04:09:16;14.50;82.70
9271;DHT22;4673;53.458;9.940;2023-08-07T04:11:42;14.50;82.70
9271;DHT22;4673;53.458;9.940;2023-08-07T04:14:08;14.50;82.70
9271;DHT22;4673;53.458;9.940;2023-08-07T04:16:33;14.50;82.50
9271;DHT22;4673;53.458;9.940;2023-08-07T04:18:59;14.60;82.60
9271;DHT22;4673;53.458;9.940;2023-08-07T04:21:25;14.60;82.70
9271;DHT22;4673;53.458;9.940;2023-08-07T04:23:50;14.60;82.90
9271;DHT22;4673;53.458;9.940;2023-08-07T04:26:16;14.60;82.90
9271;DHT22;4673;53.458;9.940;2023-08-07T04:28:42;14.60;83.00
9271;DHT22;4673;53.458;9.940;2023-08-07T04:31:07;14.70;83.20
9271;DHT22;4673;53.458;9.940;2023-08-07T04:33:33;14.80;83.20
9271;DHT22;4673;53.458;9.940;2023-08-07T04:35:59;14.80;83.30
9271;DHT22;4673;53.458;9.940;2023-08-07T04:38:24;14.90;83.50
9271;DHT22;4673;53.458;9.940;2023-08-07T04:40:51;14.90;83.40
9271;DHT22;4673;53.458;9.940;2023-08-07T04:43:18;15.00;83.30
9271;DHT22;4673;53.458;9.940;2023-08-07T04:45:44;15.00;83.40
9271;DHT22;4673;53.458;9.940;2023-08-07T04:48:11;15.00;83.20
9271;DHT22;4673;53.458;9.940;2023-08-07T04:50:37;15.00;83.50
9271;DHT22;4673;53.458;9.940;2023-08-07T04:53:04;15.10;83.50
9271;DHT22;4673;53.458;9.940;2023-08-07T04:55:31;15.20;83.40
9271;DHT22;4673;53.458;9.940;2023-08-07T04:57:57;15.20;83.20
9271;DHT22;4673;53.458;9.940;2023-08-07T05:00:23;15.20;82.90
9271;DHT22;4673;53.458;9.940;2023-08-07T05:02:49;15.30;82.80
9271;DHT22;4673;53.458;9.940;2023-08-07T05:05:15;15.20;82.50
9271;DHT22;4673;53.458;9.940;2023-08-07T05:07:41;15.30;82.90
9271;DHT22;4673;53.458;9.940;2023-08-07T05:10:09;15.20;82.70
9271;DHT22;4673;53.458;9.940;2023-08-07T05:12:35;15.30;82.60
9271;DHT22;4673;53.458;9.940;2023-08-07T05:15:01;15.30;82.50
9271;DHT22;4673;53.458;9.940;2023-08-07T05:17:27;15.40;82.00
9271;DHT22;4673;53.458;9.940;2023-08-07T05:19:53;15.40;82.10
9271;DHT22;4673;53.458;9.940;2023-08-07T05:22:18;15.40;81.90
9271;DHT22;4673;53.458;9.940;2023-08-07T05:24:44;15.40;81.70
9271;DHT22;4673;53.458;9.940;2023-08-07T05:27:10;15.40;82.10
9271;DHT22;4673;53.458;9.940;2023-08-07T05:29:39;15.40;81.80
9271;DHT22;4673;53.458;9.940;2023-08-07T05:32:12;15.50;82.00
9271;DHT22;4673;53.458;9.940;2023-08-07T05:34:38;15.60;81.80
9271;DHT22;4673;53.458;9.940;2023-08-07T05:37:04;15.70;81.40
9271;DHT22;4673;53.458;9.940;2023-08-07T05:39:30;15.70;81.10
9271;DHT22;4673;53.458;9.940;2023-08-07T05:41:56;15.70;81.00
9271;DHT22;4673;53.458;9.940;2023-08-07T05:44:23;15.80;80.90
9271;DHT22;4673;53.458;9.940;2023-08-07T05:46:49;15.90;81.00
9271;DHT22;4673;53.458;9.940;2023-08-07T05:49:15;15.90;81.50
9271;DHT22;4673;53.458;9.940;2023-08-07T05:51:41;15.90;82.00
9271;DHT22;4673;53.458;9.940;2023-08-07T05:54:06;16.00;82.10
9271;DHT22;4673;53.458;9.940;2023-08-07T05:56:32;16.10;82.60
9271;DHT22;4673;53.458;9.940;2023-08-07T05:58:58;16.10;82.40
9271;DHT22;4673;53.458;9.940;2023-08-07T06:01:24;16.20;82.10
9271;DHT22;4673;53.458;9.940;2023-08-07T06:03:55;16.00;82.50
9271;DHT22;4673;53.458;9.940;2023-08-07T06:06:20;15.80;83.70
9271;DHT22;4673;53.458;9.940;2023-08-07T06:08:46;15.70;84.70
9271;DHT22;4673;53.458;9.940;2023-08-07T06:11:12;15.60;85.90
9271;DHT22;4673;53.458;9.940;2023-08-07T06:13:37;15.40;86.60
9271;DHT22;4673;53.458;9.940;2023-08-07T06:16:04;15.40;87.40
9271;DHT22;4673;53.458;9.940;2023-08-07T06:18:30;15.40;88.20
9271;DHT22;4673;53.458;9.940;2023-08-07T06:20:56;15.40;88.70
9271;DHT22;4673;53.458;9.940;2023-08-07T06:23:21;15.50;89.10
9271;DHT22;4673;53.458;9.940;2023-08-07T06:25:47;15.60;89.50
9271;DHT22;4673;53.458;9.940;2023-08-07T06:28:13;15.80;89.70
9271;DHT22;4673;53.458;9.940;2023-08-07T06:30:38;15.80;89.00
9271;DHT22;4673;53.458;9.940;2023-08-07T06:33:04;15.80;87.50
9271;DHT22;4673;53.458;9.940;2023-08-07T06:35:30;15.90;88.20
9271;DHT22;4673;53.458;9.940;2023-08-07T06:37:55;15.90;87.90
9271;DHT22;4673;53.458;9.940;2023-08-07T06:40:21;16.00;87.50
9271;DHT22;4673;53.458;9.940;2023-08-07T06:42:47;16.10;87.70
9271;DHT22;4673;53.458;9.940;2023-08-07T06:45:12;16.20;87.10
9271;DHT22;4673;53.458;9.940;2023-08-07T06:47:38;16.20;85.80
9271;DHT22;4673;53.458;9.940;2023-08-07T06:50:04;16.20;84.60
9271;DHT22;4673;53.458;9.940;2023-08-07T06:52:30;16.10;84.70
9271;DHT22;4673;53.458;9.940;2023-08-07T06:54:56;16.00;84.00
9271;DHT22;4673;53.458;9.940;2023-08-07T06:57:22;16.10;84.60
9271;DHT22;4673;53.458;9.940;2023-08-07T06:59:47;16.30;84.30
9271;DHT22;4673;53.458;9.940;2023-08-07T07:02:13;16.40;84.10
9271;DHT22;4673;53.458;9.940;2023-08-07T07:04:38;16.20;83.40
9271;DHT22;4673;53.458;9.940;2023-08-07T07:07:04;16.00;83.80
9271;DHT22;4673;53.458;9.940;2023-08-07T07:09:30;15.80;84.80
9271;DHT22;4673;53.458;9.940;2023-08-07T07:11:55;15.60;85.90
9271;DHT22;4673;53.458;9.940;2023-08-07T07:14:21;15.50;86.50
9271;DHT22;4673;53.458;9.940;2023-08-07T07:16:48;15.40;87.20
9271;DHT22;4673;53.458;9.940;2023-08-07T07:19:13;15.50;88.00
9271;DHT22;4673;53.458;9.940;2023-08-07T07:21:39;15.70;88.00
9271;DHT22;4673;53.458;9.940;2023-08-07T07:24:05;15.60;87.90
9271;DHT22;4673;53.458;9.940;2023-08-07T07:26:31;15.50;88.00
9271;DHT22;4673;53.458;9.940;2023-08-07T07:28:57;15.60;88.50
9271;DHT22;4673;53.458;9.940;2023-08-07T07:31:23;15.50;87.60
9271;DHT22;4673;53.458;9.940;2023-08-07T07:33:48;15.40;86.70
9271;DHT22;4673;53.458;9.940;2023-08-07T07:36:18;15.50;87.00
9271;DHT22;4673;53.458;9.940;2023-08-07T07:38:47;15.30;86.40
9271;DHT22;4673;53.458;9.940;2023-08-07T07:41:16;15.30;86.20
9271;DHT22;4673;53.458;9.940;2023-08-07T07:43:42;15.10;86.20
9271;DHT22;4673;53.458;9.940;2023-08-07T07:46:08;15.00;87.00
9271;DHT22;4673;53.458;9.940;2023-08-07T07:48:34;15.00;88.30
9271;DHT22;4673;53.458;9.940;2023-08-07T07:51:02;15.10;89.50
9271;DHT22;4673;53.458;9.940;2023-08-07T07:53:27;15.20;89.00
9271;DHT22;4673;53.458;9.940;2023-08-07T07:55:53;15.40;88.80
9271;DHT22;4673;53.458;9.940;2023-08-07T07:58:20;15.50;88.40
9271;DHT22;4673;53.458;9.940;2023-08-07T08:00:46;15.70;87.70
9271;DHT22;4673;53.458;9.940;2023-08-07T08:03:12;15.80;87.80
9271;DHT22;4673;53.458;9.940;2023-08-07T08:05:38;16.10;87.30
9271;DHT22;4673;53.458;9.940;2023-08-07T08:08:05;16.10;85.00
9271;DHT22;4673;53.458;9.940;2023-08-07T08:10:33;16.20;83.60
9271;DHT22;4673;53.458;9.940;2023-08-07T08:12:59;16.10;80.60
9271;DHT22;4673;53.458;9.940;2023-08-07T08:15:25;15.90;80.10
9271;DHT22;4673;53.458;9.940;2023-08-07T08:17:51;15.70;80.90
9271;DHT22;4673;53.458;9.940;2023-08-07T08:20:17;15.60;81.00
9271;DHT22;4673;53.458;9.940;2023-08-07T08:22:46;15.70;83.00
9271;DHT22;4673;53.458;9.940;2023-08-07T08:25:12;15.60;81.10
9271;DHT22;4673;53.458;9.940;2023-08-07T08:27:38;15.60;82.20
9271;DHT22;4673;53.458;9.940;2023-08-07T08:30:05;15.40;81.40
9271;DHT22;4673;53.458;9.940;2023-08-07T08:32:31;15.30;82.50
9271;DHT22;4673;53.458;9.940;2023-08-07T08:34:56;15.50;84.10
9271;DHT22;4673;53.458;9.940;2023-08-07T08:37:22;15.70;83.70
9271;DHT22;4673;53.458;9.940;2023-08-07T08:39:48;16.00;82.70
9271;DHT22;4673;53.458;9.940;2023-08-07T08:42:14;16.20;81.60
9271;DHT22;4673;53.458;9.940;2023-08-07T08:44:45;16.40;80.40
9271;DHT22;4673;53.458;9.940;2023-08-07T08:47:12;16.50;78.10
9271;DHT22;4673;53.458;9.940;2023-08-07T08:49:46;16.60;76.90
9271;DHT22;4673;53.458;9.940;2023-08-07T08:52:12;16.70;73.30
9271;DHT22;4673;53.458;9.940;2023-08-07T08:54:42;16.70;70.90
9271;DHT22;4673;53.458;9.940;2023-08-07T08:57:08;16.90;71.40
9271;DHT22;4673;53.458;9.940;2023-08-07T08:59:34;17.00;64.80
9271;DHT22;4673;53.458;9.940;2023-08-07T09:02:00;17.10;64.20
9271;DHT22;4673;53.458;9.940;2023-08-07T09:04:26;17.30;63.90
9271;DHT22;4673;53.458;9.940;2023-08-07T09:06:51;17.40;62.80
9271;DHT22;4673;53.458;9.940;2023-08-07T09:09:19;17.50;58.80
9271;DHT22;4673;53.458;9.940;2023-08-07T09:11:45;17.50;57.90
9271;DHT22;4673;53.458;9.940;2023-08-07T09:14:16;17.50;56.40
9271;DHT22;4673;53.458;9.940;2023-08-07T09:16:45;17.70;55.00
9271;DHT22;4673;53.458;9.940;2023-08-07T09:19:12;17.70;50.50
9271;DHT22;4673;53.458;9.940;2023-08-07T09:21:38;17.90;52.30
9271;DHT22;4673;53.458;9.940;2023-08-07T09:24:04;17.90;49.70
9271;DHT22;4673;53.458;9.940;2023-08-07T09:26:32;17.90;46.20
9271;DHT22;4673;53.458;9.940;2023-08-07T09:29:02;17.80;47.90
9271;DHT22;4673;53.458;9.940;2023-08-07T09:31:28;17.90;46.10
9271;DHT22;4673;53.458;9.940;2023-08-07T09:34:01;18.10;44.80
9271;DHT22;4673;53.458;9.940;2023-08-07T09:36:30;18.10;43.80
9271;DHT22;4673;53.458;9.940;2023-08-07T09:39:00;18.10;42.00
9271;DHT22;4673;53.458;9.940;2023-08-07T09:41:28;18.10;44.50
9271;DHT22;4673;53.458;9.940;2023-08-07T09:43:54;18.10;41.90
9271;DHT22;4673;53.458;9.940;2023-08-07T09:46:20;18.40;42.00
9271;DHT22;4673;53.458;9.940;2023-08-07T09:48:45;18.80;40.70
9271;DHT22;4673;53.458;9.940;2023-08-07T09:51:11;18.70;36.80
9271;DHT22;4673;53.458;9.940;2023-08-07T09:53:37;18.50;38.10
9271;DHT22;4673;53.458;9.940;2023-08-07T09:56:03;18.10;40.30
9271;DHT22;4673;53.458;9.940;2023-08-07T09:58:29;18.00;41.50
9271;DHT22;4673;53.458;9.940;2023-08-07T10:00:55;17.80;42.00
9271;DHT22;4673;53.458;9.940;2023-08-07T10:03:25;17.60;43.60
9271;DHT22;4673;53.458;9.940;2023-08-07T10:05:52;17.70;44.90
9271;DHT22;4673;53.458;9.940;2023-08-07T10:08:18;17.50;44.00
9271;DHT22;4673;53.458;9.940;2023-08-07T10:10:44;17.40;43.40
9271;DHT22;4673;53.458;9.940;2023-08-07T10:13:13;17.50;43.70
9271;DHT22;4673;53.458;9.940;2023-08-07T10:15:40;17.60;44.10
9271;DHT22;4673;53.458;9.940;2023-08-07T10:18:07;17.70;44.40
9271;DHT22;4673;53.458;9.940;2023-08-07T10:20:33;17.80;43.80
9271;DHT22;4673;53.458;9.940;2023-08-07T10:23:10;17.90;44.10
9271;DHT22;4673;53.458;9.940;2023-08-07T10:25:40;18.00;44.00
9271;DHT22;4673;53.458;9.940;2023-08-07T10:28:10;18.10;43.70
9271;DHT22;4673;53.458;9.940;2023-08-07T10:30:38;18.20;39.20
9271;DHT22;4673;53.458;9.940;2023-08-07T10:33:05;18.30;38.70
9271;DHT22;4673;53.458;9.940;2023-08-07T10:35:33;18.60;39.90
9271;DHT22;4673;53.458;9.940;2023-08-07T10:38:07;19.00;39.00
9271;DHT22;4673;53.458;9.940;2023-08-07T10:40:34;19.10;38.30
9271;DHT22;4673;53.458;9.940;2023-08-07T10:45:34;18.60;38.70
9271;DHT22;4673;53.458;9.940;2023-08-07T10:48:14;18.30;38.50
9271;DHT22;4673;53.458;9.940;2023-08-07T10:51:11;17.60;41.20
9271;DHT22;4673;53.458;9.940;2023-08-07T10:53:40;17.30;43.10
9271;DHT22;4673;53.458;9.940;2023-08-07T10:56:09;17.40;43.90
9271;DHT22;4673;53.458;9.940;2023-08-07T10:58:36;17.60;43.10
9271;DHT22;4673;53.458;9.940;2023-08-07T11:06:18;18.10;38.70
9271;DHT22;4673;53.458;9.940;2023-08-07T11:08:48;18.30;36.30
9271;DHT22;4673;53.458;9.940;2023-08-07T11:11:14;18.50;36.50
9271;DHT22;4673;53.458;9.940;2023-08-07T11:13:39;18.60;35.10
9271;DHT22;4673;53.458;9.940;2023-08-07T11:16:05;18.70;35.30
9271;DHT22;4673;53.458;9.940;2023-08-07T11:18:31;19.00;35.90
9271;DHT22;4673;53.458;9.940;2023-08-07T11:20:57;19.00;35.10
9271;DHT22;4673;53.458;9.940;2023-08-07T11:23:26;19.20;34.30
9271;DHT22;4673;53.458;9.940;2023-08-07T11:25:53;19.00;32.70
9271;DHT22;4673;53.458;9.940;2023-08-07T11:28:19;18.80;32.80
9271;DHT22;4673;53.458;9.940;2023-08-07T11:30:48;18.70;33.90
9271;DHT22;4673;53.458;9.940;2023-08-07T11:33:14;18.90;34.10
9271;DHT22;4673;53.458;9.940;2023-08-07T11:35:43;18.80;35.50
9271;DHT22;4673;53.458;9.940;2023-08-07T11:38:08;18.70;34.40
9271;DHT22;4673;53.458;9.940;2023-08-07T11:40:35;18.70;34.30
9271;DHT22;4673;53.458;9.940;2023-08-07T11:43:01;18.40;35.00
9271;DHT22;4673;53.458;9.940;2023-08-07T11:45:27;18.10;36.30
9271;DHT22;4673;53.458;9.940;2023-08-07T11:47:53;17.80;37.60
9271;DHT22;4673;53.458;9.940;2023-08-07T11:50:22;17.80;38.30
9271;DHT22;4673;53.458;9.940;2023-08-07T11:52:48;17.80;38.80
9271;DHT22;4673;53.458;9.940;2023-08-07T11:55:17;18.00;39.70
9271;DHT22;4673;53.458;9.940;2023-08-07T11:57:46;18.20;39.40
9271;DHT22;4673;53.458;9.940;2023-08-07T12:00:12;18.40;40.00
9271;DHT22;4673;53.458;9.940;2023-08-07T12:02:45;18.60;38.20
9271;DHT22;4673;53.458;9.940;2023-08-07T12:05:11;18.50;39.50
9271;DHT22;4673;53.458;9.940;2023-08-07T12:07:38;18.70;39.40
9271;DHT22;4673;53.458;9.940;2023-08-07T12:10:07;18.80;38.30
9271;DHT22;4673;53.458;9.940;2023-08-07T12:12:37;18.60;39.10
9271;DHT22;4673;53.458;9.940;2023-08-07T12:15:06;18.60;39.60
9271;DHT22;4673;53.458;9.940;2023-08-07T12:17:32;18.70;39.90
9271;DHT22;4673;53.458;9.940;2023-08-07T12:19:58;18.60;39.10
9271;DHT22;4673;53.458;9.940;2023-08-07T12:22:27;18.50;40.50
9271;DHT22;4673;53.458;9.940;2023-08-07T12:24:56;18.50;41.60
9271;DHT22;4673;53.458;9.940;2023-08-07T12:27:21;17.90;42.20
9271;DHT22;4673;53.458;9.940;2023-08-07T12:29:47;17.60;45.40
9271;DHT22;4673;53.458;9.940;2023-08-07T12:32:12;17.60;45.00
9271;DHT22;4673;53.458;9.940;2023-08-07T12:34:38;17.70;44.30
9271;DHT22;4673;53.458;9.940;2023-08-07T12:37:04;18.00;44.90
9271;DHT22;4673;53.458;9.940;2023-08-07T12:39:30;18.10;40.00
9271;DHT22;4673;53.458;9.940;2023-08-07T12:41:55;18.20;40.90
9271;DHT22;4673;53.458;9.940;2023-08-07T12:44:21;18.50;40.30
9271;DHT22;4673;53.458;9.940;2023-08-07T12:46:47;18.80;37.20
9271;DHT22;4673;53.458;9.940;2023-08-07T12:49:15;19.10;36.80
9271;DHT22;4673;53.458;9.940;2023-08-07T12:51:40;19.30;33.70
9271;DHT22;4673;53.458;9.940;2023-08-07T12:54:06;19.00;31.80
9271;DHT22;4673;53.458;9.940;2023-08-07T12:56:31;18.90;33.80
9271;DHT22;4673;53.458;9.940;2023-08-07T12:58:57;18.70;31.90
9271;DHT22;4673;53.458;9.940;2023-08-07T13:01:23;18.70;30.20
9271;DHT22;4673;53.458;9.940;2023-08-07T13:03:48;18.40;31.90
9271;DHT22;4673;53.458;9.940;2023-08-07T13:06:14;18.30;32.00
9271;DHT22;4673;53.458;9.940;2023-08-07T13:08:40;18.00;35.00
9271;DHT22;4673;53.458;9.940;2023-08-07T13:11:06;17.50;37.30
9271;DHT22;4673;53.458;9.940;2023-08-07T13:13:32;17.40;40.00
9271;DHT22;4673;53.458;9.940;2023-08-07T13:15:57;17.40;40.40
9271;DHT22;4673;53.458;9.940;2023-08-07T13:18:24;17.70;39.40
9271;DHT22;4673;53.458;9.940;2023-08-07T13:20:49;17.80;38.70
9271;DHT22;4673;53.458;9.940;2023-08-07T13:23:15;18.00;37.90
9271;DHT22;4673;53.458;9.940;2023-08-07T13:25:41;18.10;37.80
9271;DHT22;4673;53.458;9.940;2023-08-07T13:28:06;18.30;38.30
9271;DHT22;4673;53.458;9.940;2023-08-07T13:30:35;18.60;38.60
9271;DHT22;4673;53.458;9.940;2023-08-07T13:33:01;18.70;37.60
9271;DHT22;4673;53.458;9.940;2023-08-07T13:35:27;18.40;38.40
9271;DHT22;4673;53.458;9.940;2023-08-07T13:37:52;18.20;39.20
9271;DHT22;4673;53.458;9.940;2023-08-07T13:40:18;18.00;39.90
9271;DHT22;4673;53.458;9.940;2023-08-07T13:42:45;17.70;40.60
9271;DHT22;4673;53.458;9.940;2023-08-07T13:45:12;17.70;41.70
9271;DHT22;4673;53.458;9.940;2023-08-07T13:47:39;17.80;41.10
9271;DHT22;4673;53.458;9.940;2023-08-07T13:50:05;18.00;41.50
9271;DHT22;4673;53.458;9.940;2023-08-07T13:52:33;18.10;40.70
9271;DHT22;4673;53.458;9.940;2023-08-07T13:54:58;18.00;40.70
9271;DHT22;4673;53.458;9.940;2023-08-07T13:57:24;18.10;40.60
9271;DHT22;4673;53.458;9.940;2023-08-07T13:59:50;18.20;39.40
9271;DHT22;4673;53.458;9.940;2023-08-07T14:02:15;18.30;38.20
9271;DHT22;4673;53.458;9.940;2023-08-07T14:04:41;18.30;38.80
9271;DHT22;4673;53.458;9.940;2023-08-07T14:07:10;18.50;38.50
9271;DHT22;4673;53.458;9.940;2023-08-07T14:09:36;18.40;38.20
9271;DHT22;4673;53.458;9.940;2023-08-07T14:12:03;18.40;37.70
9271;DHT22;4673;53.458;9.940;2023-08-07T14:14:28;18.40;35.00
9271;DHT22;4673;53.458;9.940;2023-08-07T14:16:54;18.00;36.50
9271;DHT22;4673;53.458;9.940;2023-08-07T14:19:23;17.80;37.10
9271;DHT22;4673;53.458;9.940;2023-08-07T14:21:49;17.70;35.70
9271;DHT22;4673;53.458;9.940;2023-08-07T14:24:15;17.70;35.50
9271;DHT22;4673;53.458;9.940;2023-08-07T14:26:42;17.60;33.30
9271;DHT22;4673;53.458;9.940;2023-08-07T14:29:08;17.60;33.60
9271;DHT22;4673;53.458;9.940;2023-08-07T14:31:34;17.50;32.90
9271;DHT22;4673;53.458;9.940;2023-08-07T14:33:59;17.50;34.60
9271;DHT22;4673;53.458;9.940;2023-08-07T14:36:25;17.60;33.80
9271;DHT22;4673;53.458;9.940;2023-08-07T14:38:51;17.70;34.20
9271;DHT22;4673;53.458;9.940;2023-08-07T14:41:17;17.80;34.30
9271;DHT22;4673;53.458;9.940;2023-08-07T14:43:44;17.80;34.40
9271;DHT22;4673;53.458;9.940;2023-08-07T14:46:11;17.70;35.00
9271;DHT22;4673;53.458;9.940;2023-08-07T14:48:36;17.80;35.00
9271;DHT22;4673;53.458;9.940;2023-08-07T14:51:02;17.80;34.20
9271;DHT22;4673;53.458;9.940;2023-08-07T14:53:28;17.80;35.10
9271;DHT22;4673;53.458;9.940;2023-08-07T14:55:54;17.90;35.20
9271;DHT22;4673;53.458;9.940;2023-08-07T14:58:19;17.80;35.10
9271;DHT22;4673;53.458;9.940;2023-08-07T15:00:45;17.80;35.20
9271;DHT22;4673;53.458;9.940;2023-08-07T15:03:11;17.60;35.50
9271;DHT22;4673;53.458;9.940;2023-08-07T15:05:37;17.60;36.90
9271;DHT22;4673;53.458;9.940;2023-08-07T15:08:02;17.60;35.60
9271;DHT22;4673;53.458;9.940;2023-08-07T15:10:29;17.60;35.90
9271;DHT22;4673;53.458;9.940;2023-08-07T15:12:55;17.70;35.90
9271;DHT22;4673;53.458;9.940;2023-08-07T15:15:21;17.90;35.80
9271;DHT22;4673;53.458;9.940;2023-08-07T15:17:47;18.00;35.00
9271;DHT22;4673;53.458;9.940;2023-08-07T15:20:12;18.20;35.10
9271;DHT22;4673;53.458;9.940;2023-08-07T15:22:38;18.30;34.80
9271;DHT22;4673;53.458;9.940;2023-08-07T15:25:04;18.10;34.90
9271;DHT22;4673;53.458;9.940;2023-08-07T15:27:30;18.10;35.50
9271;DHT22;4673;53.458;9.940;2023-08-07T15:29:56;18.20;34.60
9271;DHT22;4673;53.458;9.940;2023-08-07T15:32:21;18.10;34.70
9271;DHT22;4673;53.458;9.940;2023-08-07T15:34:47;18.10;35.40
9271;DHT22;4673;53.458;9.940;2023-08-07T15:37:13;18.00;35.00
9271;DHT22;4673;53.458;9.940;2023-08-07T15:39:39;18.00;35.40
9271;DHT22;4673;53.458;9.940;2023-08-07T15:42:06;18.10;34.30
9271;DHT22;4673;53.458;9.940;2023-08-07T15:44:32;18.10;34.90
9271;DHT22;4673;53.458;9.940;2023-08-07T15:46:57;18.10;34.40
9271;DHT22;4673;53.458;9.940;2023-08-07T15:49:23;18.00;34.00
9271;DHT22;4673;53.458;9.940;2023-08-07T15:51:49;17.60;35.50
9271;DHT22;4673;53.458;9.940;2023-08-07T15:54:15;17.40;37.40
9271;DHT22;4673;53.458;9.940;2023-08-07T15:56:41;17.40;37.80
9271;DHT22;4673;53.458;9.940;2023-08-07T15:59:06;17.40;36.10
9271;DHT22;4673;53.458;9.940;2023-08-07T16:01:32;17.50;34.20
9271;DHT22;4673;53.458;9.940;2023-08-07T16:03:58;17.40;33.30
9271;DHT22;4673;53.458;9.940;2023-08-07T16:06:24;17.10;33.70